sensor_id;sensor_type;location;lat;lon;timestamp;pressure;altitude;pressure_sealevel;temperature;humidity
76834;BME280;65793;42.678;23.332;2023-02-16T00:02:44;96019.50;;;-1.45;100.00
76834;BME280;65793;42.678;23.332;2023-02-16T00:05:46;96018.91;;;-1.48;100.00
76834;BME280;65793;42.678;23.332;2023-02-16T00:08:49;96018.69;;;-1.45;100.00
76834;BME280;65793;42.678;23.332;2023-02-16T00:11:51;96017.84;;;-1.46;100.00
76834;BME280;65793;42.678;23.332;2023-02-16T00:14:52;96017.84;;;-1.46;100.00
76834;BME280;65793;42.678;23.332;2023-02-16T00:17:53;96016.56;;;-1.52;100.00
76834;BME280;65793;42.678;23.332;2023-02-16T00:20:54;96016.56;;;-1.52;100.00
76834;BME280;65793;42.678;23.332;2023-02-16T00:23:56;96018.56;;;-1.55;100.00
76834;BME280;65793;42.678;23.332;2023-02-16T00:26:58;96024.53;;;-1.55;100.00
76834;BME280;65793;42.678;23.332;2023-02-16T00:29:59;96013.75;;;-1.60;100.00
76834;BME280;65793;42.678;23.332;2023-02-16T00:33:00;96020.56;;;-1.59;100.00
76834;BME280;65793;42.678;23.332;2023-02-16T00:36:00;96011.38;;;-1.63;100.00
76834;BME280;65793;42.678;23.332;2023-02-16T00:39:02;96020.78;;;-1.62;100.00
76834;BME280;65793;42.678;23.332;2023-02-16T00:42:05;96021.38;;;-1.69;100.00
76834;BME280;65793;42.678;23.332;2023-02-16T00:45:12;96018.06;;;-1.71;100.00
76834;BME280;65793;42.678;23.332;2023-02-16T00:48:14;96010.66;;;-1.76;100.00
76834;BME280;65793;42.678;23.332;2023-02-16T00:51:14;96015.13;;;-1.78;100.00
76834;BME280;65793;42.678;23.332;2023-02-16T00:54:16;96016.78;;;-1.77;100.00
76834;BME280;65793;42.678;23.332;2023-02-16T00:57:17;96015.25;;;-1.79;100.00
76834;BME280;65793;42.678;23.332;2023-02-16T01:00:23;96017.22;;;-1.83;100.00
76834;BME280;65793;42.678;23.332;2023-02-16T01:03:26;96022.75;;;-1.87;100.00
76834;BME280;65793;42.678;23.332;2023-02-16T01:06:27;96007.72;;;-1.82;100.00
76834;BME280;65793;42.678;23.332;2023-02-16T01:09:29;96005.97;;;-1.82;100.00
76834;BME280;65793;42.678;23.332;2023-02-16T01:12:30;96007.13;;;-1.86;100.00
76834;BME280;65793;42.678;23.332;2023-02-16T01:15:30;96002.81;;;-1.85;100.00
76834;BME280;65793;42.678;23.332;2023-02-16T01:18:31;95998.91;;;-1.91;100.00
76834;BME280;65793;42.678;23.332;2023-02-16T01:21:31;96000.53;;;-1.90;100.00
76834;BME280;65793;42.678;23.332;2023-02-16T01:24:34;96000.22;;;-1.85;100.00
76834;BME280;65793;42.678;23.332;2023-02-16T01:27:35;95994.09;;;-1.96;100.00
76834;BME280;65793;42.678;23.332;2023-02-16T01:30:36;95991.41;;;-1.94;100.00
76834;BME280;65793;42.678;23.332;2023-02-16T01:33:37;95983.38;;;-2.02;100.00
76834;BME280;65793;42.678;23.332;2023-02-16T01:36:39;95977.41;;;-2.03;100.00
76834;BME280;65793;42.678;23.332;2023-02-16T01:39:42;95984.56;;;-2.06;100.00
76834;BME280;65793;42.678;23.332;2023-02-16T01:42:48;95989.94;;;-2.09;100.00
76834;BME280;65793;42.678;23.332;2023-02-16T01:45:54;95971.88;;;-2.09;100.00
76834;BME280;65793;42.678;23.332;2023-02-16T01:48:56;95971.50;;;-2.16;100.00
76834;BME280;65793;42.678;23.332;2023-02-16T01:52:00;95966.13;;;-2.13;100.00
76834;BME280;65793;42.678;23.332;2023-02-16T01:55:12;95970.34;;;-2.12;100.00
76834;BME280;65793;42.678;23.332;2023-02-16T01:58:29;95970.81;;;-2.07;100.00
76834;BME280;65793;42.678;23.332;2023-02-16T02:01:38;95970.09;;;-2.09;100.00
76834;BME280;65793;42.678;23.332;2023-02-16T02:04:43;95966.94;;;-2.12;100.00
76834;BME280;65793;42.678;23.332;2023-02-16T02:07:51;95977.38;;;-2.14;100.00
76834;BME280;65793;42.678;23.332;2023-02-16T02:11:02;95971.50;;;-2.16;100.00
76834;BME280;65793;42.678;23.332;2023-02-16T02:14:06;95976.19;;;-2.21;100.00
76834;BME280;65793;42.678;23.332;2023-02-16T02:17:12;95969.03;;;-2.17;100.00
76834;BME280;65793;42.678;23.332;2023-02-16T02:20:18;95975.13;;;-2.18;100.00
76834;BME280;65793;42.678;23.332;2023-02-16T02:23:29;95971.00;;;-2.32;100.00
76834;BME280;65793;42.678;23.332;2023-02-16T02:27:05;95972.28;;;-2.27;100.00
76834;BME280;65793;42.678;23.332;2023-02-16T02:30:19;95963.25;;;-2.32;100.00
76834;BME280;65793;42.678;23.332;2023-02-16T02:33:33;95965.84;;;-2.32;100.00
76834;BME280;65793;42.678;23.332;2023-02-16T02:36:40;95959.25;;;-2.36;100.00
76834;BME280;65793;42.678;23.332;2023-02-16T02:39:50;95964.91;;;-2.31;100.00
76834;BME280;65793;42.678;23.332;2023-02-16T02:43:03;95962.66;;;-2.36;100.00
76834;BME280;65793;42.678;23.332;2023-02-16T02:46:09;95964.03;;;-2.43;100.00
76834;BME280;65793;42.678;23.332;2023-02-16T02:49:10;95966.16;;;-2.48;100.00
76834;BME280;65793;42.678;23.332;2023-02-16T02:52:11;95966.63;;;-2.43;100.00
76834;BME280;65793;42.678;23.332;2023-02-16T02:55:12;95965.22;;;-2.47;100.00
76834;BME280;65793;42.678;23.332;2023-02-16T02:58:14;95976.53;;;-2.60;100.00
76834;BME280;65793;42.678;23.332;2023-02-16T03:01:17;95974.41;;;-2.67;100.00
76834;BME280;65793;42.678;23.332;2023-02-16T03:04:22;95977.91;;;-2.68;100.00
76834;BME280;65793;42.678;23.332;2023-02-16T03:07:24;95968.41;;;-2.67;100.00
76834;BME280;65793;42.678;23.332;2023-02-16T03:10:27;95970.84;;;-2.77;100.00
76834;BME280;65793;42.678;23.332;2023-02-16T03:13:31;95972.69;;;-2.79;100.00
76834;BME280;65793;42.678;23.332;2023-02-16T03:16:36;95976.19;;;-2.80;100.00
76834;BME280;65793;42.678;23.332;2023-02-16T03:19:39;95966.13;;;-2.83;100.00
76834;BME280;65793;42.678;23.332;2023-02-16T03:22:41;95978.66;;;-2.78;100.00
76834;BME280;65793;42.678;23.332;2023-02-16T03:25:42;95975.28;;;-2.79;100.00
76834;BME280;65793;42.678;23.332;2023-02-16T03:28:46;95970.09;;;-2.79;100.00
76834;BME280;65793;42.678;23.332;2023-02-16T03:31:48;95966.03;;;-2.70;100.00
76834;BME280;65793;42.678;23.332;2023-02-16T03:34:48;95952.78;;;-2.77;100.00
76834;BME280;65793;42.678;23.332;2023-02-16T03:37:49;95962.66;;;-2.71;100.00
76834;BME280;65793;42.678;23.332;2023-02-16T03:40:51;95961.44;;;-2.78;100.00
76834;BME280;65793;42.678;23.332;2023-02-16T03:43:53;95959.69;;;-2.77;100.00
76834;BME280;65793;42.678;23.332;2023-02-16T03:46:53;95967.63;;;-2.80;100.00
76834;BME280;65793;42.678;23.332;2023-02-16T03:49:54;95969.28;;;-2.79;100.00
76834;BME280;65793;42.678;23.332;2023-02-16T03:52:55;95959.91;;;-2.80;100.00
76834;BME280;65793;42.678;23.332;2023-02-16T03:55:56;95973.50;;;-2.78;100.00
76834;BME280;65793;42.678;23.332;2023-02-16T03:58:58;95968.09;;;-2.86;100.00
76834;BME280;65793;42.678;23.332;2023-02-16T04:01:59;95968.91;;;-2.86;100.00
76834;BME280;65793;42.678;23.332;2023-02-16T04:05:00;95962.88;;;-2.97;100.00
76834;BME280;65793;42.678;23.332;2023-02-16T04:08:00;95962.69;;;-3.07;100.00
76834;BME280;65793;42.678;23.332;2023-02-16T04:11:01;95961.66;;;-3.05;100.00
76834;BME280;65793;42.678;23.332;2023-02-16T04:14:03;95957.44;;;-3.06;100.00
76834;BME280;65793;42.678;23.332;2023-02-16T04:17:03;95951.25;;;-3.03;100.00
76834;BME280;65793;42.678;23.332;2023-02-16T04:20:06;95952.94;;;-3.15;100.00
76834;BME280;65793;42.678;23.332;2023-02-16T04:23:07;95952.25;;;-3.17;100.00
76834;BME280;65793;42.678;23.332;2023-02-16T04:26:07;95943.91;;;-3.20;100.00
76834;BME280;65793;42.678;23.332;2023-02-16T04:29:09;95952.16;;;-3.28;100.00
76834;BME280;65793;42.678;23.332;2023-02-16T04:32:10;95948.16;;;-3.32;100.00
76834;BME280;65793;42.678;23.332;2023-02-16T04:35:11;95947.56;;;-3.35;100.00
76834;BME280;65793;42.678;23.332;2023-02-16T04:38:12;95940.97;;;-3.39;100.00
76834;BME280;65793;42.678;23.332;2023-02-16T04:41:12;95948.41;;;-3.48;100.00
76834;BME280;65793;42.678;23.332;2023-02-16T04:44:14;95950.78;;;-3.45;100.00
76834;BME280;65793;42.678;23.332;2023-02-16T04:47:15;95954.69;;;-3.52;100.00
76834;BME280;65793;42.678;23.332;2023-02-16T04:50:16;95961.59;;;-3.52;100.00
76834;BME280;65793;42.678;23.332;2023-02-16T04:53:17;95959.72;;;-3.50;100.00
76834;BME280;65793;42.678;23.332;2023-02-16T04:56:17;95959.03;;;-3.52;100.00
76834;BME280;65793;42.678;23.332;2023-02-16T04:59:19;95961.16;;;-3.46;100.00
76834;BME280;65793;42.678;23.332;2023-02-16T05:02:20;95970.31;;;-3.42;100.00
76834;BME280;65793;42.678;23.332;2023-02-16T05:05:20;95968.91;;;-3.46;100.00
76834;BME280;65793;42.678;23.332;2023-02-16T05:08:21;95967.25;;;-3.47;100.00
76834;BME280;65793;42.678;23.332;2023-02-16T05:11:21;95972.19;;;-3.44;100.00
76834;BME280;65793;42.678;23.332;2023-02-16T05:14:25;95973.31;;;-3.48;100.00
76834;BME280;65793;42.678;23.332;2023-02-16T05:17:27;95974.88;;;-3.46;100.00
76834;BME280;65793;42.678;23.332;2023-02-16T05:20:28;95975.69;;;-3.45;100.00
76834;BME280;65793;42.678;23.332;2023-02-16T05:23:28;95970.84;;;-3.50;100.00
76834;BME280;65793;42.678;23.332;2023-02-16T05:26:30;95980.13;;;-3.47;100.00
76834;BME280;65793;42.678;23.332;2023-02-16T05:29:32;95973.03;;;-3.56;100.00
76834;BME280;65793;42.678;23.332;2023-02-16T05:32:32;95973.22;;;-3.47;100.00
76834;BME280;65793;42.678;23.332;2023-02-16T05:35:33;95986.50;;;-3.40;100.00
76834;BME280;65793;42.678;23.332;2023-02-16T05:38:34;95984.53;;;-3.36;100.00
76834;BME280;65793;42.678;23.332;2023-02-16T05:41:34;95986.06;;;-3.34;100.00
76834;BME280;65793;42.678;23.332;2023-02-16T05:44:37;95986.78;;;-3.32;100.00
76834;BME280;65793;42.678;23.332;2023-02-16T05:47:37;95987.78;;;-3.22;100.00
76834;BME280;65793;42.678;23.332;2023-02-16T05:50:38;95986.53;;;-3.16;100.00
76834;BME280;65793;42.678;23.332;2023-02-16T05:53:39;95992.94;;;-3.09;100.00
76834;BME280;65793;42.678;23.332;2023-02-16T05:56:39;96000.00;;;-3.00;100.00
76834;BME280;65793;42.678;23.332;2023-02-16T05:59:41;95990.28;;;-2.96;100.00
76834;BME280;65793;42.678;23.332;2023-02-16T06:05:53;96004.50;;;-2.91;100.00
76834;BME280;65793;42.678;23.332;2023-02-16T06:08:59;96006.66;;;-2.85;100.00
76834;BME280;65793;42.678;23.332;2023-02-16T07:07:06;96023.13;;;-1.14;100.00
76834;BME280;65793;42.678;23.332;2023-02-16T07:10:08;96023.59;;;-1.20;100.00
76834;BME280;65793;42.678;23.332;2023-02-16T07:13:09;96013.88;;;-1.17;100.00
76834;BME280;65793;42.678;23.332;2023-02-16T07:16:12;96017.44;;;-0.86;100.00
76834;BME280;65793;42.678;23.332;2023-02-16T07:19:22;96009.66;;;-0.63;100.00
76834;BME280;65793;42.678;23.332;2023-02-16T10:45:04;95874.16;;;8.09;100.00
76834;BME280;65793;42.678;23.332;2023-02-16T10:48:12;95871.25;;;7.89;100.00
76834;BME280;65793;42.678;23.332;2023-02-16T10:51:18;95866.25;;;7.34;100.00
76834;BME280;65793;42.678;23.332;2023-02-16T10:54:23;95863.84;;;7.25;100.00
76834;BME280;65793;42.678;23.332;2023-02-16T10:57:29;95861.28;;;8.81;100.00
76834;BME280;65793;42.678;23.332;2023-02-16T11:14:02;95835.72;;;9.04;100.00
76834;BME280;65793;42.678;23.332;2023-02-16T11:17:09;95835.19;;;8.21;100.00
76834;BME280;65793;42.678;23.332;2023-02-16T11:20:27;95831.44;;;10.38;100.00
76834;BME280;65793;42.678;23.332;2023-02-16T11:23:29;95820.34;;;11.64;100.00
76834;BME280;65793;42.678;23.332;2023-02-16T11:26:31;95821.16;;;8.87;100.00
76834;BME280;65793;42.678;23.332;2023-02-16T11:40:00;95803.50;;;10.43;100.00
76834;BME280;65793;42.678;23.332;2023-02-16T11:43:03;95795.97;;;11.68;100.00
76834;BME280;65793;42.678;23.332;2023-02-16T11:46:12;95796.81;;;10.88;100.00
76834;BME280;65793;42.678;23.332;2023-02-16T11:49:31;95797.44;;;9.87;100.00
76834;BME280;65793;42.678;23.332;2023-02-16T11:52:32;95796.00;;;9.85;100.00
76834;BME280;65793;42.678;23.332;2023-02-16T12:52:34;95713.06;;;15.02;90.67
76834;BME280;65793;42.678;23.332;2023-02-16T12:55:43;95702.72;;;16.24;81.46
76834;BME280;65793;42.678;23.332;2023-02-16T12:58:48;95705.19;;;13.86;86.18
76834;BME280;65793;42.678;23.332;2023-02-16T13:01:53;95706.69;;;16.09;81.24
76834;BME280;65793;42.678;23.332;2023-02-16T13:04:58;95685.78;;;17.66;70.78
76834;BME280;65793;42.678;23.332;2023-02-16T23:08:13;95686.59;;;2.18;100.00
76834;BME280;65793;42.678;23.332;2023-02-16T23:11:14;95682.13;;;2.10;100.00
76834;BME280;65793;42.678;23.332;2023-02-16T23:14:14;95676.25;;;2.08;100.00
76834;BME280;65793;42.678;23.332;2023-02-16T23:17:15;95687.25;;;2.02;100.00
76834;BME280;65793;42.678;23.332;2023-02-16T23:20:16;95679.59;;;2.01;100.00
76834;BME280;65793;42.678;23.332;2023-02-16T23:23:18;95683.28;;;1.98;100.00
76834;BME280;65793;42.678;23.332;2023-02-16T23:26:20;95680.03;;;1.96;100.00
76834;BME280;65793;42.678;23.332;2023-02-16T23:29:21;95691.59;;;1.84;100.00
76834;BME280;65793;42.678;23.332;2023-02-16T23:32:22;95682.34;;;1.99;100.00
76834;BME280;65793;42.678;23.332;2023-02-16T23:35:23;95683.88;;;1.92;100.00
76834;BME280;65793;42.678;23.332;2023-02-16T23:38:25;95680.22;;;1.85;100.00
76834;BME280;65793;42.678;23.332;2023-02-16T23:41:27;95677.47;;;1.86;100.00
76834;BME280;65793;42.678;23.332;2023-02-16T23:44:27;95676.50;;;1.87;100.00
76834;BME280;65793;42.678;23.332;2023-02-16T23:47:28;95672.88;;;1.80;100.00
76834;BME280;65793;42.678;23.332;2023-02-16T23:50:29;95673.91;;;1.87;100.00
76834;BME280;65793;42.678;23.332;2023-02-16T23:53:31;95670.63;;;1.85;100.00
76834;BME280;65793;42.678;23.332;2023-02-16T23:56:31;95676.50;;;1.87;100.00
76834;BME280;65793;42.678;23.332;2023-02-16T23:59:32;95668.81;;;1.96;100.00
